sensor_id;sensor_type;location;lat;lon;timestamp;pressure;altitude;pressure_sealevel;temperature;humidity
84957;BME280;75252;45.438;-73.814;2024-02-26T00:00:03;100916.50;;;-0.22;60.40
84957;BME280;75252;45.438;-73.814;2024-02-26T00:02:30;100926.03;;;-0.27;60.31
84957;BME280;75252;45.438;-73.814;2024-02-26T00:04:58;100920.78;;;-0.39;60.06
84957;BME280;75252;45.438;-73.814;2024-02-26T00:07:24;100919.91;;;-0.42;60.90
84957;BME280;75252;45.438;-73.814;2024-02-26T00:09:50;100912.09;;;-0.38;60.66
84957;BME280;75252;45.438;-73.814;2024-02-26T00:12:16;100907.72;;;-0.46;60.96
84957;BME280;75252;45.438;-73.814;2024-02-26T00:14:42;100904.22;;;-0.54;60.80
84957;BME280;75252;45.438;-73.814;2024-02-26T00:17:08;100905.97;;;-0.52;61.31
84957;BME280;75252;45.438;-73.814;2024-02-26T00:19:35;100912.91;;;-0.55;61.13
84957;BME280;75252;45.438;-73.814;2024-02-26T00:22:01;100914.63;;;-0.54;61.06
84957;BME280;75252;45.438;-73.814;2024-02-26T00:24:27;100905.97;;;-0.53;61.01
84957;BME280;75252;45.438;-73.814;2024-02-26T00:26:52;100907.72;;;-0.48;62.15
84957;BME280;75252;45.438;-73.814;2024-02-26T00:29:20;100912.94;;;-0.45;61.68
84957;BME280;75252;45.438;-73.814;2024-02-26T00:31:47;100904.28;;;-0.44;60.73
84957;BME280;75252;45.438;-73.814;2024-02-26T00:34:13;100905.16;;;-0.36;60.27
84957;BME280;75252;45.438;-73.814;2024-02-26T00:36:39;100892.19;;;-0.22;60.11
84957;BME280;75252;45.438;-73.814;2024-02-26T00:39:05;100883.50;;;-0.18;60.00
84957;BME280;75252;45.438;-73.814;2024-02-26T00:41:30;100893.06;;;-0.13;61.27
84957;BME280;75252;45.438;-73.814;2024-02-26T00:43:57;100892.22;;;-0.07;60.76
84957;BME280;75252;45.438;-73.814;2024-02-26T00:46:23;100888.75;;;-0.06;60.35
84957;BME280;75252;45.438;-73.814;2024-02-26T00:48:48;100887.88;;;-0.07;60.26
84957;BME280;75252;45.438;-73.814;2024-02-26T00:51:14;100882.63;;;-0.10;60.06
84957;BME280;75252;45.438;-73.814;2024-02-26T00:53:41;100882.66;;;0.01;60.35
84957;BME280;75252;45.438;-73.814;2024-02-26T00:56:06;100880.06;;;0.03;60.52
84957;BME280;75252;45.438;-73.814;2024-02-26T00:58:32;100873.13;;;-0.06;60.29
84957;BME280;75252;45.438;-73.814;2024-02-26T01:00:58;100873.94;;;-0.12;59.47
84957;BME280;75252;45.438;-73.814;2024-02-26T01:03:24;100879.19;;;-0.16;59.53
84957;BME280;75252;45.438;-73.814;2024-02-26T01:05:50;100877.44;;;-0.11;59.60
84957;BME280;75252;45.438;-73.814;2024-02-26T01:08:16;100871.34;;;-0.15;59.75
84957;BME280;75252;45.438;-73.814;2024-02-26T01:10:42;100873.06;;;-0.21;60.23
84957;BME280;75252;45.438;-73.814;2024-02-26T01:13:08;100873.09;;;-0.17;60.93
84957;BME280;75252;45.438;-73.814;2024-02-26T01:15:34;100867.00;;;-0.20;61.18
84957;BME280;75252;45.438;-73.814;2024-02-26T01:18:00;100863.53;;;-0.22;61.54
84957;BME280;75252;45.438;-73.814;2024-02-26T01:20:25;100861.81;;;-0.14;61.91
84957;BME280;75252;45.438;-73.814;2024-02-26T01:22:51;100859.22;;;-0.14;61.79
84957;BME280;75252;45.438;-73.814;2024-02-26T01:25:17;100857.44;;;-0.24;62.57
84957;BME280;75252;45.438;-73.814;2024-02-26T01:27:43;100858.31;;;-0.15;62.33
84957;BME280;75252;45.438;-73.814;2024-02-26T01:30:10;100856.56;;;-0.25;61.88
84957;BME280;75252;45.438;-73.814;2024-02-26T01:32:36;100856.56;;;-0.23;61.57
84957;BME280;75252;45.438;-73.814;2024-02-26T01:35:02;100851.34;;;-0.25;62.13
84957;BME280;75252;45.438;-73.814;2024-02-26T01:37:36;100848.75;;;-0.34;61.45
84957;BME280;75252;45.438;-73.814;2024-02-26T01:40:02;100847.84;;;-0.42;61.78
84957;BME280;75252;45.438;-73.814;2024-02-26T01:42:32;100850.44;;;-0.37;61.20
84957;BME280;75252;45.438;-73.814;2024-02-26T01:44:59;100851.31;;;-0.43;61.73
84957;BME280;75252;45.438;-73.814;2024-02-26T01:47:25;100859.09;;;-0.41;62.64
84957;BME280;75252;45.438;-73.814;2024-02-26T01:49:53;100853.03;;;-0.45;62.74
84957;BME280;75252;45.438;-73.814;2024-02-26T01:52:19;100848.69;;;-0.41;62.07
84957;BME280;75252;45.438;-73.814;2024-02-26T01:54:47;100859.13;;;-0.35;62.82
84957;BME280;75252;45.438;-73.814;2024-02-26T01:57:14;100853.94;;;-0.31;62.82
84957;BME280;75252;45.438;-73.814;2024-02-26T01:59:40;100853.97;;;-0.26;63.28
84957;BME280;75252;45.438;-73.814;2024-02-26T02:02:08;100854.81;;;-0.21;62.28
84957;BME280;75252;45.438;-73.814;2024-02-26T02:04:36;100848.75;;;-0.23;62.76
84957;BME280;75252;45.438;-73.814;2024-02-26T02:07:03;100854.81;;;-0.21;62.10
84957;BME280;75252;45.438;-73.814;2024-02-26T02:09:29;100852.22;;;-0.21;62.65
84957;BME280;75252;45.438;-73.814;2024-02-26T02:11:55;100847.91;;;-0.22;63.49
84957;BME280;75252;45.438;-73.814;2024-02-26T02:14:22;100836.56;;;-0.27;62.99
84957;BME280;75252;45.438;-73.814;2024-02-26T02:16:48;100851.38;;;-0.17;60.93
84957;BME280;75252;45.438;-73.814;2024-02-26T02:19:14;100862.66;;;-0.14;60.96
84957;BME280;75252;45.438;-73.814;2024-02-26T02:21:40;100855.72;;;-0.12;60.71
84957;BME280;75252;45.438;-73.814;2024-02-26T02:24:05;100866.16;;;-0.09;61.13
84957;BME280;75252;45.438;-73.814;2024-02-26T02:26:31;100869.66;;;-0.02;60.56
84957;BME280;75252;45.438;-73.814;2024-02-26T02:28:58;100876.59;;;0.00;59.68
84957;BME280;75252;45.438;-73.814;2024-02-26T02:31:25;100878.34;;;0.03;59.07
84957;BME280;75252;45.438;-73.814;2024-02-26T02:33:51;100875.72;;;0.02;59.36
84957;BME280;75252;45.438;-73.814;2024-02-26T02:36:17;100852.25;;;-0.03;59.86
84957;BME280;75252;45.438;-73.814;2024-02-26T02:38:49;100868.78;;;0.05;60.28
84957;BME280;75252;45.438;-73.814;2024-02-26T02:41:16;100861.81;;;0.04;60.31
84957;BME280;75252;45.438;-73.814;2024-02-26T02:43:42;100866.16;;;0.02;60.43
84957;BME280;75252;45.438;-73.814;2024-02-26T02:46:07;100879.19;;;0.00;60.53
84957;BME280;75252;45.438;-73.814;2024-02-26T02:48:33;100899.19;;;0.02;60.68
84957;BME280;75252;45.438;-73.814;2024-02-26T02:50:59;100901.81;;;0.00;60.55
84957;BME280;75252;45.438;-73.814;2024-02-26T02:53:25;100913.94;;;0.01;60.62
84957;BME280;75252;45.438;-73.814;2024-02-26T02:55:51;100894.84;;;0.14;60.79
84957;BME280;75252;45.438;-73.814;2024-02-26T02:58:17;100892.28;;;0.16;60.78
84957;BME280;75252;45.438;-73.814;2024-02-26T03:00:42;100894.00;;;0.15;60.26
84957;BME280;75252;45.438;-73.814;2024-02-26T03:03:08;100896.56;;;0.05;60.05
84957;BME280;75252;45.438;-73.814;2024-02-26T03:05:34;100912.22;;;0.05;60.01
84957;BME280;75252;45.438;-73.814;2024-02-26T03:08:00;100933.09;;;0.14;58.89
84957;BME280;75252;45.438;-73.814;2024-02-26T03:10:26;100934.81;;;0.16;59.24
84957;BME280;75252;45.438;-73.814;2024-02-26T03:12:53;100935.69;;;0.09;59.81
84957;BME280;75252;45.438;-73.814;2024-02-26T03:15:19;100953.06;;;0.06;60.14
84957;BME280;75252;45.438;-73.814;2024-02-26T03:17:45;100963.50;;;0.06;60.73
84957;BME280;75252;45.438;-73.814;2024-02-26T03:20:11;100977.41;;;0.18;59.28
84957;BME280;75252;45.438;-73.814;2024-02-26T03:22:39;100978.25;;;0.08;60.56
84957;BME280;75252;45.438;-73.814;2024-02-26T03:25:06;100990.47;;;0.14;60.42
84957;BME280;75252;45.438;-73.814;2024-02-26T03:27:32;100979.16;;;0.13;60.49
84957;BME280;75252;45.438;-73.814;2024-02-26T03:29:58;100977.41;;;0.14;61.72
84957;BME280;75252;45.438;-73.814;2024-02-26T03:32:24;100980.00;;;0.08;60.54
84957;BME280;75252;45.438;-73.814;2024-02-26T03:34:50;100987.88;;;0.21;60.12
84957;BME280;75252;45.438;-73.814;2024-02-26T03:37:19;100975.69;;;0.26;59.89
84957;BME280;75252;45.438;-73.814;2024-02-26T03:39:45;100971.34;;;0.24;60.36
84957;BME280;75252;45.438;-73.814;2024-02-26T03:42:11;100974.84;;;0.36;60.50
84957;BME280;75252;45.438;-73.814;2024-02-26T03:44:37;100972.28;;;0.47;60.34
84957;BME280;75252;45.438;-73.814;2024-02-26T03:47:03;100952.25;;;0.40;61.47
84957;BME280;75252;45.438;-73.814;2024-02-26T03:49:29;100935.75;;;0.48;61.58
84957;BME280;75252;45.438;-73.814;2024-02-26T03:51:55;100943.56;;;0.54;62.56
84957;BME280;75252;45.438;-73.814;2024-02-26T03:54:22;100935.75;;;0.54;62.62
84957;BME280;75252;45.438;-73.814;2024-02-26T03:56:47;100923.56;;;0.59;63.08
84957;BME280;75252;45.438;-73.814;2024-02-26T03:59:13;100918.34;;;0.70;62.09
84957;BME280;75252;45.438;-73.814;2024-02-26T04:01:44;100909.66;;;0.72;63.83
84957;BME280;75252;45.438;-73.814;2024-02-26T04:04:10;100908.78;;;0.73;63.24
84957;BME280;75252;45.438;-73.814;2024-02-26T04:06:36;100894.88;;;0.74;63.46
84957;BME280;75252;45.438;-73.814;2024-02-26T04:09:02;100881.81;;;0.71;64.30
84957;BME280;75252;45.438;-73.814;2024-02-26T04:11:29;100884.41;;;0.77;65.00
84957;BME280;75252;45.438;-73.814;2024-02-26T04:13:55;100878.34;;;0.78;64.99
84957;BME280;75252;45.438;-73.814;2024-02-26T04:16:22;100873.97;;;0.82;65.35
84957;BME280;75252;45.438;-73.814;2024-02-26T04:18:48;100860.06;;;0.81;64.91
84957;BME280;75252;45.438;-73.814;2024-02-26T04:21:14;100840.91;;;0.87;64.74
84957;BME280;75252;45.438;-73.814;2024-02-26T04:23:40;100830.47;;;0.85;65.17
84957;BME280;75252;45.438;-73.814;2024-02-26T04:26:06;100828.72;;;0.89;65.92
84957;BME280;75252;45.438;-73.814;2024-02-26T04:28:32;100820.03;;;0.90;65.84
84957;BME280;75252;45.438;-73.814;2024-02-26T04:30:58;100819.16;;;0.86;65.69
84957;BME280;75252;45.438;-73.814;2024-02-26T04:33:23;100812.19;;;0.87;65.46
84957;BME280;75252;45.438;-73.814;2024-02-26T04:35:49;100809.53;;;0.99;66.07
84957;BME280;75252;45.438;-73.814;2024-02-26T04:38:15;100811.28;;;0.97;65.93
84957;BME280;75252;45.438;-73.814;2024-02-26T04:40:41;100797.38;;;0.90;66.14
84957;BME280;75252;45.438;-73.814;2024-02-26T04:43:07;100806.13;;;0.88;66.61
84957;BME280;75252;45.438;-73.814;2024-02-26T04:45:33;100801.78;;;0.84;67.17
84957;BME280;75252;45.438;-73.814;2024-02-26T04:47:59;100800.03;;;0.87;67.28
84957;BME280;75252;45.438;-73.814;2024-02-26T04:50:25;100774.84;;;0.74;67.85
84957;BME280;75252;45.438;-73.814;2024-02-26T04:52:51;100785.28;;;0.74;67.92
84957;BME280;75252;45.438;-73.814;2024-02-26T04:55:17;100782.59;;;0.86;69.57
84957;BME280;75252;45.438;-73.814;2024-02-26T04:57:43;100785.22;;;0.86;70.06
84957;BME280;75252;45.438;-73.814;2024-02-26T05:00:09;100774.78;;;0.88;69.99
84957;BME280;75252;45.438;-73.814;2024-02-26T05:02:35;100768.69;;;0.92;69.28
84957;BME280;75252;45.438;-73.814;2024-02-26T05:05:04;100780.03;;;0.82;68.61
84957;BME280;75252;45.438;-73.814;2024-02-26T05:07:30;100780.00;;;0.88;67.11
84957;BME280;75252;45.438;-73.814;2024-02-26T05:09:56;100784.34;;;0.90;67.50
84957;BME280;75252;45.438;-73.814;2024-02-26T05:12:22;100780.88;;;0.85;68.11
84957;BME280;75252;45.438;-73.814;2024-02-26T05:14:48;100786.97;;;0.81;67.83
84957;BME280;75252;45.438;-73.814;2024-02-26T05:17:14;100788.72;;;0.81;67.83
84957;BME280;75252;45.438;-73.814;2024-02-26T05:19:40;100785.22;;;0.85;67.97
84957;BME280;75252;45.438;-73.814;2024-02-26T05:22:06;100786.97;;;0.83;68.16
84957;BME280;75252;45.438;-73.814;2024-02-26T05:24:33;100793.09;;;0.80;69.18
84957;BME280;75252;45.438;-73.814;2024-02-26T05:26:59;100780.91;;;0.79;68.91
84957;BME280;75252;45.438;-73.814;2024-02-26T05:29:25;100789.59;;;0.84;69.61
84957;BME280;75252;45.438;-73.814;2024-02-26T05:31:51;100786.09;;;0.87;69.49
84957;BME280;75252;45.438;-73.814;2024-02-26T05:34:19;100786.97;;;0.89;69.92
84957;BME280;75252;45.438;-73.814;2024-02-26T05:36:45;100784.38;;;0.84;69.56
84957;BME280;75252;45.438;-73.814;2024-02-26T05:39:11;100785.22;;;0.91;69.67
84957;BME280;75252;45.438;-73.814;2024-02-26T05:41:37;100785.25;;;0.80;68.92
84957;BME280;75252;45.438;-73.814;2024-02-26T05:44:03;100779.16;;;0.77;69.46
84957;BME280;75252;45.438;-73.814;2024-02-26T05:46:29;100780.03;;;0.82;69.35
84957;BME280;75252;45.438;-73.814;2024-02-26T05:48:55;100768.72;;;0.86;68.81
84957;BME280;75252;45.438;-73.814;2024-02-26T05:51:21;100776.53;;;0.86;68.84
84957;BME280;75252;45.438;-73.814;2024-02-26T05:53:49;100777.44;;;0.80;68.55
84957;BME280;75252;45.438;-73.814;2024-02-26T05:56:20;100778.28;;;0.84;68.85
84957;BME280;75252;45.438;-73.814;2024-02-26T05:58:46;100776.56;;;0.78;67.71
84957;BME280;75252;45.438;-73.814;2024-02-26T06:01:16;100778.25;;;0.87;64.75
84957;BME280;75252;45.438;-73.814;2024-02-26T06:03:44;100783.50;;;0.90;64.16
84957;BME280;75252;45.438;-73.814;2024-02-26T06:06:11;100774.78;;;0.88;62.66
84957;BME280;75252;45.438;-73.814;2024-02-26T06:08:37;100782.59;;;0.86;61.91
84957;BME280;75252;45.438;-73.814;2024-02-26T06:11:06;100774.81;;;0.82;62.10
84957;BME280;75252;45.438;-73.814;2024-02-26T06:13:33;100770.47;;;0.82;61.71
84957;BME280;75252;45.438;-73.814;2024-02-26T06:15:59;100772.16;;;0.86;62.60
84957;BME280;75252;45.438;-73.814;2024-02-26T06:18:25;100767.84;;;0.81;62.04
84957;BME280;75252;45.438;-73.814;2024-02-26T06:20:51;100763.50;;;0.80;61.77
84957;BME280;75252;45.438;-73.814;2024-02-26T06:23:17;100772.19;;;0.83;61.11
84957;BME280;75252;45.438;-73.814;2024-02-26T06:25:43;100766.94;;;0.91;60.48
84957;BME280;75252;45.438;-73.814;2024-02-26T06:28:09;100774.81;;;0.83;60.98
84957;BME280;75252;45.438;-73.814;2024-02-26T06:30:35;100766.09;;;0.81;61.37
84957;BME280;75252;45.438;-73.814;2024-02-26T06:33:01;100759.16;;;0.80;61.48
84957;BME280;75252;45.438;-73.814;2024-02-26T06:35:27;100765.25;;;0.78;61.71
84957;BME280;75252;45.438;-73.814;2024-02-26T06:37:53;100766.16;;;0.72;61.57
84957;BME280;75252;45.438;-73.814;2024-02-26T06:40:19;100767.03;;;0.62;62.54
84957;BME280;75252;45.438;-73.814;2024-02-26T06:42:45;100768.75;;;0.63;63.11
84957;BME280;75252;45.438;-73.814;2024-02-26T06:45:11;100780.06;;;0.64;62.94
84957;BME280;75252;45.438;-73.814;2024-02-26T06:47:37;100769.63;;;0.65;63.62
84957;BME280;75252;45.438;-73.814;2024-02-26T06:50:03;100777.47;;;0.68;62.95
84957;BME280;75252;45.438;-73.814;2024-02-26T06:52:29;100780.94;;;0.61;63.62
84957;BME280;75252;45.438;-73.814;2024-02-26T06:54:55;100783.56;;;0.61;64.71
84957;BME280;75252;45.438;-73.814;2024-02-26T06:57:21;100786.19;;;0.60;65.37
84957;BME280;75252;45.438;-73.814;2024-02-26T06:59:46;100771.38;;;0.57;65.09
84957;BME280;75252;45.438;-73.814;2024-02-26T07:02:13;100765.28;;;0.61;65.33
84957;BME280;75252;45.438;-73.814;2024-02-26T07:04:39;100767.06;;;0.56;65.59
84957;BME280;75252;45.438;-73.814;2024-02-26T07:07:07;100770.50;;;0.61;66.00
84957;BME280;75252;45.438;-73.814;2024-02-26T07:09:33;100756.63;;;0.56;66.40
84957;BME280;75252;45.438;-73.814;2024-02-26T07:11:59;100747.03;;;0.61;66.77
84957;BME280;75252;45.438;-73.814;2024-02-26T07:14:24;100743.56;;;0.62;67.15
84957;BME280;75252;45.438;-73.814;2024-02-26T07:16:50;100738.34;;;0.59;67.58
84957;BME280;75252;45.438;-73.814;2024-02-26T07:19:16;100742.69;;;0.60;67.93
84957;BME280;75252;45.438;-73.814;2024-02-26T07:21:42;100730.47;;;0.67;66.78
84957;BME280;75252;45.438;-73.814;2024-02-26T07:24:08;100726.19;;;0.63;66.98
84957;BME280;75252;45.438;-73.814;2024-02-26T07:26:34;100720.94;;;0.66;66.54
84957;BME280;75252;45.438;-73.814;2024-02-26T07:29:00;100714.84;;;0.65;66.94
84957;BME280;75252;45.438;-73.814;2024-02-26T07:31:26;100714.81;;;0.67;66.53
84957;BME280;75252;45.438;-73.814;2024-02-26T07:33:52;100716.56;;;0.69;67.33
84957;BME280;75252;45.438;-73.814;2024-02-26T07:36:18;100711.34;;;0.72;67.43
84957;BME280;75252;45.438;-73.814;2024-02-26T07:38:44;100715.63;;;0.90;67.23
84957;BME280;75252;45.438;-73.814;2024-02-26T07:41:11;100706.09;;;0.81;67.43
84957;BME280;75252;45.438;-73.814;2024-02-26T07:43:37;100707.84;;;0.79;67.57
84957;BME280;75252;45.438;-73.814;2024-02-26T07:46:03;100714.75;;;0.85;68.00
84957;BME280;75252;45.438;-73.814;2024-02-26T07:48:29;100711.31;;;0.84;67.92
84957;BME280;75252;45.438;-73.814;2024-02-26T07:50:55;100706.94;;;0.83;67.75
84957;BME280;75252;45.438;-73.814;2024-02-26T07:53:20;100708.69;;;0.81;68.25
84957;BME280;75252;45.438;-73.814;2024-02-26T07:55:46;100699.09;;;0.85;67.74
84957;BME280;75252;45.438;-73.814;2024-02-26T07:58:12;100703.47;;;0.84;68.04
84957;BME280;75252;45.438;-73.814;2024-02-26T08:00:38;100693.03;;;0.84;67.59
84957;BME280;75252;45.438;-73.814;2024-02-26T08:03:04;100704.28;;;0.97;68.44
84957;BME280;75252;45.438;-73.814;2024-02-26T08:05:30;100698.22;;;0.94;68.74
84957;BME280;75252;45.438;-73.814;2024-02-26T08:07:56;100707.78;;;0.96;68.85
84957;BME280;75252;45.438;-73.814;2024-02-26T08:10:22;100704.28;;;0.93;69.38
84957;BME280;75252;45.438;-73.814;2024-02-26T08:12:48;100698.22;;;0.92;69.44
84957;BME280;75252;45.438;-73.814;2024-02-26T08:15:14;100695.59;;;0.90;69.91
84957;BME280;75252;45.438;-73.814;2024-02-26T08:17:39;100695.59;;;0.90;70.22
84957;BME280;75252;45.438;-73.814;2024-02-26T08:20:06;100698.22;;;0.89;70.18
84957;BME280;75252;45.438;-73.814;2024-02-26T08:22:32;100697.31;;;0.98;69.85
84957;BME280;75252;45.438;-73.814;2024-02-26T08:24:58;100692.94;;;1.01;70.28
84957;BME280;75252;45.438;-73.814;2024-02-26T08:27:24;100692.03;;;1.10;70.29
84957;BME280;75252;45.438;-73.814;2024-02-26T08:29:50;100690.25;;;1.13;70.85
84957;BME280;75252;45.438;-73.814;2024-02-26T08:32:16;100694.56;;;1.19;70.90
84957;BME280;75252;45.438;-73.814;2024-02-26T08:34:42;100698.91;;;1.21;71.55
84957;BME280;75252;45.438;-73.814;2024-02-26T08:37:08;100691.94;;;1.25;71.82
84957;BME280;75252;45.438;-73.814;2024-02-26T08:39:33;100691.97;;;1.22;71.58
84957;BME280;75252;45.438;-73.814;2024-02-26T08:41:59;100691.97;;;1.14;71.59
84957;BME280;75252;45.438;-73.814;2024-02-26T08:44:25;100696.38;;;1.14;71.75
84957;BME280;75252;45.438;-73.814;2024-02-26T08:46:51;100697.22;;;1.16;71.72
84957;BME280;75252;45.438;-73.814;2024-02-26T08:49:17;100696.31;;;1.18;72.31
84957;BME280;75252;45.438;-73.814;2024-02-26T08:51:43;100698.06;;;1.16;72.25
84957;BME280;75252;45.438;-73.814;2024-02-26T08:54:09;100704.19;;;1.12;72.38
84957;BME280;75252;45.438;-73.814;2024-02-26T08:56:35;100697.25;;;1.10;72.08
84957;BME280;75252;45.438;-73.814;2024-02-26T08:59:01;100708.53;;;1.13;72.61
84957;BME280;75252;45.438;-73.814;2024-02-26T09:01:30;100709.41;;;1.15;72.47
84957;BME280;75252;45.438;-73.814;2024-02-26T09:03:56;100710.28;;;1.11;72.47
84957;BME280;75252;45.438;-73.814;2024-02-26T09:06:22;100706.78;;;1.12;72.85
84957;BME280;75252;45.438;-73.814;2024-02-26T09:08:48;100703.28;;;1.16;72.50
84957;BME280;75252;45.438;-73.814;2024-02-26T09:11:14;100704.19;;;1.14;72.17
84957;BME280;75252;45.438;-73.814;2024-02-26T09:13:40;100706.78;;;1.17;72.62
84957;BME280;75252;45.438;-73.814;2024-02-26T09:16:06;100712.00;;;1.17;71.83
84957;BME280;75252;45.438;-73.814;2024-02-26T09:18:32;100712.84;;;1.23;72.42
84957;BME280;75252;45.438;-73.814;2024-02-26T09:20:58;100717.22;;;1.20;71.98
84957;BME280;75252;45.438;-73.814;2024-02-26T09:23:24;100722.44;;;1.20;71.60
84957;BME280;75252;45.438;-73.814;2024-02-26T09:25:50;100721.56;;;1.19;71.79
84957;BME280;75252;45.438;-73.814;2024-02-26T09:28:16;100728.53;;;1.19;71.71
84957;BME280;75252;45.438;-73.814;2024-02-26T09:30:45;100726.81;;;1.18;71.80
84957;BME280;75252;45.438;-73.814;2024-02-26T09:33:13;100732.84;;;1.23;70.68
84957;BME280;75252;45.438;-73.814;2024-02-26T09:35:39;100733.72;;;1.25;70.59
84957;BME280;75252;45.438;-73.814;2024-02-26T09:38:05;100741.56;;;1.23;70.90
84957;BME280;75252;45.438;-73.814;2024-02-26T09:40:31;100741.53;;;1.25;70.56
84957;BME280;75252;45.438;-73.814;2024-02-26T09:43:00;100750.31;;;1.18;71.01
84957;BME280;75252;45.438;-73.814;2024-02-26T09:45:30;100751.13;;;1.23;70.97
84957;BME280;75252;45.438;-73.814;2024-02-26T09:47:58;100753.75;;;1.23;70.08
84957;BME280;75252;45.438;-73.814;2024-02-26T09:50:24;100758.97;;;1.21;70.25
84957;BME280;75252;45.438;-73.814;2024-02-26T09:52:51;100758.09;;;1.24;70.87
84957;BME280;75252;45.438;-73.814;2024-02-26T09:55:17;100756.38;;;1.20;70.82
84957;BME280;75252;45.438;-73.814;2024-02-26T09:57:45;100766.81;;;1.23;71.21
84957;BME280;75252;45.438;-73.814;2024-02-26T10:00:17;100768.56;;;1.24;71.58
84957;BME280;75252;45.438;-73.814;2024-02-26T10:02:47;100775.50;;;1.28;67.93
84957;BME280;75252;45.438;-73.814;2024-02-26T10:05:17;100775.41;;;1.40;64.15
84957;BME280;75252;45.438;-73.814;2024-02-26T10:07:45;100772.75;;;1.46;64.64
84957;BME280;75252;45.438;-73.814;2024-02-26T10:10:13;100770.13;;;1.55;62.01
84957;BME280;75252;45.438;-73.814;2024-02-26T10:12:39;100770.91;;;1.61;62.87
84957;BME280;75252;45.438;-73.814;2024-02-26T10:15:05;100778.66;;;1.75;60.26
84957;BME280;75252;45.438;-73.814;2024-02-26T10:17:32;100782.13;;;1.77;59.60
84957;BME280;75252;45.438;-73.814;2024-02-26T10:20:16;100783.06;;;1.71;60.66
84957;BME280;75252;45.438;-73.814;2024-02-26T10:22:44;100772.53;;;1.79;59.94
84957;BME280;75252;45.438;-73.814;2024-02-26T10:25:10;100779.53;;;1.75;60.23
84957;BME280;75252;45.438;-73.814;2024-02-26T10:27:36;100788.25;;;1.76;59.65
84957;BME280;75252;45.438;-73.814;2024-02-26T10:30:19;100809.13;;;1.79;59.60
84957;BME280;75252;45.438;-73.814;2024-02-26T10:32:46;100802.09;;;1.90;60.62
84957;BME280;75252;45.438;-73.814;2024-02-26T10:35:13;100797.78;;;1.86;60.60
84957;BME280;75252;45.438;-73.814;2024-02-26T10:37:40;100795.19;;;1.80;62.24
84957;BME280;75252;45.438;-73.814;2024-02-26T10:40:10;100789.97;;;1.80;62.59
84957;BME280;75252;45.438;-73.814;2024-02-26T10:42:36;100790.94;;;1.65;64.59
84957;BME280;75252;45.438;-73.814;2024-02-26T10:45:04;100786.63;;;1.63;65.51
84957;BME280;75252;45.438;-73.814;2024-02-26T10:47:31;100797.94;;;1.62;66.91
84957;BME280;75252;45.438;-73.814;2024-02-26T10:49:59;100796.22;;;1.53;67.35
84957;BME280;75252;45.438;-73.814;2024-02-26T10:52:27;100785.78;;;1.52;68.54
84957;BME280;75252;45.438;-73.814;2024-02-26T10:54:56;100791.91;;;1.46;69.95
84957;BME280;75252;45.438;-73.814;2024-02-26T10:57:26;100789.31;;;1.45;71.20
84957;BME280;75252;45.438;-73.814;2024-02-26T10:59:53;100792.78;;;1.48;71.90
84957;BME280;75252;45.438;-73.814;2024-02-26T11:02:20;100790.19;;;1.44;71.79
84957;BME280;75252;45.438;-73.814;2024-02-26T11:04:46;100788.47;;;1.38;72.58
84957;BME280;75252;45.438;-73.814;2024-02-26T11:07:13;100803.31;;;1.30;73.46
84957;BME280;75252;45.438;-73.814;2024-02-26T11:09:40;100810.25;;;1.36;73.42
84957;BME280;75252;45.438;-73.814;2024-02-26T11:12:11;100807.69;;;1.27;74.97
84957;BME280;75252;45.438;-73.814;2024-02-26T11:14:40;100804.22;;;1.26;74.63
84957;BME280;75252;45.438;-73.814;2024-02-26T11:17:09;100802.50;;;1.19;75.76
84957;BME280;75252;45.438;-73.814;2024-02-26T11:19:36;100808.59;;;1.17;75.54
84957;BME280;75252;45.438;-73.814;2024-02-26T11:22:03;100796.47;;;1.10;76.01
84957;BME280;75252;45.438;-73.814;2024-02-26T11:24:29;100786.91;;;1.01;75.70
84957;BME280;75252;45.438;-73.814;2024-02-26T11:26:59;100777.38;;;0.93;75.89
84957;BME280;75252;45.438;-73.814;2024-02-26T11:29:44;100766.06;;;0.94;76.98
84957;BME280;75252;45.438;-73.814;2024-02-26T11:32:13;100757.44;;;0.82;76.74
84957;BME280;75252;45.438;-73.814;2024-02-26T11:34:40;100776.56;;;0.71;76.69
84957;BME280;75252;45.438;-73.814;2024-02-26T11:37:17;100769.66;;;0.58;76.36
84957;BME280;75252;45.438;-73.814;2024-02-26T11:39:44;100767.03;;;0.53;76.99
84957;BME280;75252;45.438;-73.814;2024-02-26T11:42:14;100764.47;;;0.44;77.17
84957;BME280;75252;45.438;-73.814;2024-02-26T11:44:40;100767.97;;;0.30;77.36
84957;BME280;75252;45.438;-73.814;2024-02-26T11:47:13;100768.84;;;0.27;77.67
84957;BME280;75252;45.438;-73.814;2024-02-26T11:49:39;100783.59;;;0.24;77.70
84957;BME280;75252;45.438;-73.814;2024-02-26T11:52:08;100795.78;;;0.20;77.38
84957;BME280;75252;45.438;-73.814;2024-02-26T12:00:15;100818.41;;;0.14;77.61
84957;BME280;75252;45.438;-73.814;2024-02-26T12:02:50;100815.78;;;0.17;77.50
84957;BME280;75252;45.438;-73.814;2024-02-26T12:05:32;100831.41;;;0.12;77.54
84957;BME280;75252;45.438;-73.814;2024-02-26T12:08:03;100846.19;;;0.16;77.47
84957;BME280;75252;45.438;-73.814;2024-02-26T12:10:36;100849.69;;;0.27;77.93
84957;BME280;75252;45.438;-73.814;2024-02-26T12:13:11;100850.56;;;0.31;77.86
84957;BME280;75252;45.438;-73.814;2024-02-26T12:15:44;100846.22;;;0.37;77.31
84957;BME280;75252;45.438;-73.814;2024-02-26T12:18:16;100858.34;;;0.47;77.55
84957;BME280;75252;45.438;-73.814;2024-02-26T12:20:43;100859.22;;;0.60;77.75
84957;BME280;75252;45.438;-73.814;2024-02-26T12:23:18;100861.81;;;0.69;77.58
84957;BME280;75252;45.438;-73.814;2024-02-26T12:25:44;100862.69;;;0.75;77.74
84957;BME280;75252;45.438;-73.814;2024-02-26T12:28:10;100869.66;;;0.82;77.38
84957;BME280;75252;45.438;-73.814;2024-02-26T12:30:36;100867.84;;;1.00;77.13
84957;BME280;75252;45.438;-73.814;2024-02-26T12:33:03;100872.22;;;0.98;76.90
84957;BME280;75252;45.438;-73.814;2024-02-26T12:35:29;100871.31;;;1.03;76.72
84957;BME280;75252;45.438;-73.814;2024-02-26T12:37:58;100875.66;;;1.09;77.15
84957;BME280;75252;45.438;-73.814;2024-02-26T12:40:24;100875.66;;;1.07;77.12